Time;durP1;ratioP1;P1;durP2;ratioP2;P2;SDS_P1;SDS_P2;PMS_P1;PMS_P2;Temp;Humidity;BMP_temperature;BMP_pressure;BME280_temperature;BME280_humidity;BME280_pressure;Samples;Min_cycle;Max_cycle;Signal;HPM_P1;HPM_P2
2024/03/02 08:13:48;;;;;;;;;;;;;;;20.73;54.01;100065.84;2456502;72;22068;-86
2024/03/02 08:16:49;;;;;;;;;;;;;;;20.30;54.17;100073.88;2428830;73;51308;-85
2024/03/02 08:19:51;;;;;;;;;;;;;;;20.20;54.80;100074.81;2379855;73;49925;-77
2024/03/02 08:22:54;;;;;;;;;;;;;;;20.19;56.23;100079.37;2370798;73;50194;-81
2024/03/02 08:25:56;;;;;;;;;;;;;;;20.25;55.21;100079.57;2407275;73;51434;-80
2024/03/02 08:28:58;;;;;;;;;;;;;;;20.13;55.58;100077.48;2412267;73;51335;-80
2024/03/02 08:32:00;;;;;;;;;;;;;;;20.10;55.61;100077.91;2351905;73;50753;-80
2024/03/02 08:35:02;;;;;;;;;;;;;;;20.10;55.72;100079.25;2423469;73;51148;-80
2024/03/02 08:38:04;;;;;;;;;;;;;;;20.15;55.65;100082.14;2403538;73;50654;-80
2024/03/02 08:41:06;;;;;;;;;;;;;;;20.16;55.61;100085.13;2403988;73;50672;-80
2024/03/02 08:44:07;;;;;;;;;;;;;;;20.18;55.63;100078.22;2356624;73;50900;-82
2024/03/02 08:47:09;;;;;;;;;;;;;;;20.21;55.58;100081.83;2398858;73;51395;-81
2024/03/02 08:50:10;;;;;;;;;;;;;;;20.25;55.96;100080.39;2408708;73;51322;-82
2024/03/02 08:53:12;;;;;;;;;;;;;;;20.29;56.45;100080.79;2403676;73;50708;-81
2024/03/02 08:56:15;;;;;;;;;;;;;;;20.33;56.10;100080.70;2417416;73;49485;-80
2024/03/02 08:59:17;;;;;;;;;;;;;;;20.35;56.12;100083.48;2426160;73;51479;-80
2024/03/02 09:02:19;;;;;;;;;;;;;;;20.35;55.99;100086.17;2419363;73;51657;-82
2024/03/02 09:05:20;;;;;;;;;;;;;;;20.36;55.92;100084.30;2408948;73;50319;-82
2024/03/02 09:08:22;;;;;;;;;;;;;;;20.38;55.94;100092.98;2353028;74;50841;-82
2024/03/02 09:11:23;;;;;;;;;;;;;;;20.40;56.00;100096.30;2348723;74;51436;-82
2024/03/02 09:14:25;;;;;;;;;;;;;;;20.40;56.07;100090.41;2397282;73;51439;-82
2024/03/02 09:17:27;;;;;;;;;;;;;;;20.41;56.02;100104.66;2386624;74;50316;-81
2024/03/02 09:20:28;;;;;;;;;;;;;;;20.41;55.80;100108.69;2355183;73;50010;-80
2024/03/02 09:23:30;;;;;;;;;;;;;;;20.41;55.57;100108.16;2405457;72;50626;-81
2024/03/02 09:26:31;;;;;;;;;;;;;;;20.41;55.41;100112.72;2421468;73;50108;-81
2024/03/02 09:29:33;;;;;;;;;;;;;;;20.41;55.41;100106.00;2346293;74;50458;-81
2024/03/02 09:32:35;;;;;;;;;;;;;;;20.41;55.33;100106.82;2360126;73;51378;-81
2024/03/02 09:35:36;;;;;;;;;;;;;;;20.43;55.40;100110.66;2428809;73;50694;-80
2024/03/02 09:38:38;;;;;;;;;;;;;;;20.42;55.29;100107.64;2411144;73;50286;-81
2024/03/02 09:41:39;;;;;;;;;;;;;;;20.43;55.43;100104.76;2396461;73;51003;-81
2024/03/02 09:44:41;;;;;;;;;;;;;;;20.44;56.14;100106.92;2363221;74;51635;-81
2024/03/02 09:47:43;;;;;;;;;;;;;;;20.44;56.20;100108.27;2418603;73;51427;-80
2024/03/02 09:50:46;;;;;;;;;;;;;;;20.45;56.04;100101.87;2393914;73;51358;-81
2024/03/02 09:53:48;;;;;;;;;;;;;;;20.46;56.09;100099.48;2350225;73;49582;-83
2024/03/02 09:56:50;;;;;;;;;;;;;;;20.47;56.04;100101.13;2348188;74;50008;-81
2024/03/02 09:59:52;;;;;;;;;;;;;;;20.47;55.99;100104.34;2417819;73;50021;-81
2024/03/02 10:02:54;;;;;;;;;;;;;;;20.49;55.80;100103.09;2363682;73;51307;-80
2024/03/02 10:05:56;;;;;;;;;;;;;;;20.49;55.61;100104.44;2385538;73;50628;-79
2024/03/02 10:08:58;;;;;;;;;;;;;;;20.51;56.06;100107.75;2351407;74;51409;-80
2024/03/02 10:12:05;;;;;;;;;;;;;;;20.51;55.94;100106.92;2403890;73;51445;-79
2024/03/02 10:15:07;;;;;;;;;;;;;;;20.52;55.76;100111.25;2394294;73;51143;-80
2024/03/02 10:18:12;;;;;;;;;;;;;;;20.55;55.68;100110.86;2347505;74;50617;-80
2024/03/02 10:21:14;;;;;;;;;;;;;;;20.54;55.53;100108.70;2411605;72;49999;-80
2024/03/02 10:24:17;;;;;;;;;;;;;;;20.53;55.52;100120.47;2381722;73;51620;-78
2024/03/02 10:27:19;;;;;;;;;;;;;;;20.53;55.45;100114.27;2402490;73;52422;-79
2024/03/02 10:30:20;;;;;;;;;;;;;;;20.53;55.49;100108.37;2393705;73;50324;-79
2024/03/02 10:33:22;;;;;;;;;;;;;;;20.52;55.46;100110.73;2384915;74;52934;-80
2024/03/02 10:36:25;;;;;;;;;;;;;;;20.54;55.42;100105.16;2389455;73;51424;-78
2024/03/02 10:39:27;;;;;;;;;;;;;;;20.53;55.34;100115.09;2421977;73;50586;-78
2024/03/02 10:42:29;;;;;;;;;;;;;;;20.53;55.16;100116.44;2385863;74;51135;-79
2024/03/02 10:45:30;;;;;;;;;;;;;;;20.53;55.33;100119.64;2403731;73;49383;-79
2024/03/02 10:48:32;;;;;;;;;;;;;;;20.52;55.19;100112.59;2399746;73;50607;-80
2024/03/02 10:51:36;;;;;;;;;;;;;;;20.49;54.87;100097.72;2385050;74;50689;-78
2024/03/02 10:54:39;;;;;;;;;;;;;;;20.50;55.12;100097.19;2346977;74;50987;-78
2024/03/02 10:57:53;;;;;;;;;;;;;;;20.51;55.33;100106.41;2346933;73;49668;-79
2024/03/02 11:00:55;;;;;;;;;;;;;;;20.52;55.52;100105.36;2385689;74;50584;-79
2024/03/02 11:03:56;;;;;;;;;;;;;;;20.53;55.44;100111.05;2385733;74;52171;-79
2024/03/02 11:07:05;;;;;;;;;;;;;;;20.54;55.25;100089.03;2385531;74;50523;-79
2024/03/02 11:10:08;;;;;;;;;;;;;;;20.53;55.65;100105.69;2350465;74;50030;-78
2024/03/02 11:13:10;;;;;;;;;;;;;;;20.59;56.82;100102.17;2384879;74;51440;-78
2024/03/02 11:16:13;;;;;;;;;;;;;;;20.63;57.25;100099.39;2408943;73;51473;-79
2024/03/02 11:19:15;;;;;;;;;;;;;;;20.65;58.06;100094.64;2420050;73;51551;-78
2024/03/02 11:22:17;;;;;;;;;;;;;;;20.70;59.34;100095.84;2412218;73;50935;-78
2024/03/02 11:25:28;;;;;;;;;;;;;;;20.76;58.37;100093.16;2420611;73;50306;-79
2024/03/02 11:28:31;;;;;;;;;;;;;;;20.81;57.67;100087.97;2420905;72;50594;-78
2024/03/02 11:31:51;;;;;;;;;;;;;;;20.82;57.49;100092.83;2381302;74;50877;-82
2024/03/02 11:34:52;;;;;;;;;;;;;;;20.79;57.31;100094.08;2345477;74;50091;-80
2024/03/02 11:37:54;;;;;;;;;;;;;;;20.78;57.00;100091.09;2348523;74;50649;-82
2024/03/02 11:40:55;;;;;;;;;;;;;;;20.80;56.96;100092.20;2375304;73;49484;-81
2024/03/02 11:43:57;;;;;;;;;;;;;;;20.79;56.78;100098.63;2427620;73;50296;-82
2024/03/02 11:47:02;;;;;;;;;;;;;;;20.77;56.77;100092.63;2387912;73;50891;-82
2024/03/02 11:50:06;;;;;;;;;;;;;;;20.78;56.76;100099.65;2385488;73;50679;-82
2024/03/02 11:53:07;;;;;;;;;;;;;;;20.77;56.76;100100.70;2396230;74;40944;-81
2024/03/02 11:56:11;;;;;;;;;;;;;;;20.76;56.66;100108.47;2385849;74;49951;-82
2024/03/02 11:59:13;;;;;;;;;;;;;;;20.76;56.64;100101.75;2348239;74;50003;-82
2024/03/02 12:02:18;;;;;;;;;;;;;;;20.75;56.61;100106.80;2388457;73;50733;-82
2024/03/02 12:05:20;;;;;;;;;;;;;;;20.75;56.60;100104.93;2386115;74;50548;-82
2024/03/02 12:08:21;;;;;;;;;;;;;;;20.75;56.54;100096.05;2386530;74;50597;-82
2024/03/02 12:11:23;;;;;;;;;;;;;;;20.75;56.47;100096.05;2347663;74;49629;-82
2024/03/02 12:14:27;;;;;;;;;;;;;;;20.74;56.33;100093.06;2385771;74;50634;-82
2024/03/02 12:17:28;;;;;;;;;;;;;;;20.74;56.07;100091.72;2388997;73;22805;-82
2024/03/02 12:20:30;;;;;;;;;;;;;;;20.73;55.81;100084.17;2428963;73;50099;-82
2024/03/02 12:23:32;;;;;;;;;;;;;;;20.72;55.63;100085.20;2389092;73;50821;-83
2024/03/02 12:26:33;;;;;;;;;;;;;;;20.72;55.50;100081.16;2428222;73;51393;-81
2024/03/02 12:29:35;;;;;;;;;;;;;;;20.72;55.35;100078.47;2425956;73;51644;-83
2024/03/02 12:32:39;;;;;;;;;;;;;;;20.71;55.29;100073.33;2428058;73;50258;-82
2024/03/02 12:35:41;;;;;;;;;;;;;;;20.71;55.24;100074.67;2388210;73;49968;-81
2024/03/02 12:38:46;;;;;;;;;;;;;;;20.72;55.16;100079.81;2378307;73;50712;-84
2024/03/02 12:41:50;;;;;;;;;;;;;;;20.74;55.08;100079.62;2388784;73;51467;-84
2024/03/02 12:44:54;;;;;;;;;;;;;;;20.74;55.05;100073.72;2417294;73;21836;-83
2024/03/02 12:47:56;;;;;;;;;;;;;;;20.76;55.04;100070.30;2413720;72;51597;-78
2024/03/02 12:50:58;;;;;;;;;;;;;;;20.78;55.09;100072.27;2425292;71;50224;-77
2024/03/02 12:54:00;;;;;;;;;;;;;;;20.80;54.97;100076.07;2426419;73;51393;-77
2024/03/02 12:57:02;;;;;;;;;;;;;;;20.82;54.92;100074.00;2426821;73;51451;-76
2024/03/02 13:00:11;;;;;;;;;;;;;;;20.84;54.85;100073.28;2357855;73;51125;-78
2024/03/02 13:03:13;;;;;;;;;;;;;;;20.84;54.80;100080.00;2412357;73;52132;-78
2024/03/02 13:06:15;;;;;;;;;;;;;;;20.85;54.59;100073.58;2420553;72;50249;-78
2024/03/02 13:09:16;;;;;;;;;;;;;;;20.87;54.63;100073.67;2420633;73;52405;-78
2024/03/02 13:12:18;;;;;;;;;;;;;;;20.89;54.57;100073.47;2412004;73;49445;-78
2024/03/02 13:15:20;;;;;;;;;;;;;;;20.90;54.50;100071.59;2397838;73;51318;-78
2024/03/02 13:18:22;;;;;;;;;;;;;;;20.88;54.43;100069.95;2388415;74;51206;-77
2024/03/02 13:21:23;;;;;;;;;;;;;;;20.93;54.30;100073.86;2390526;73;50859;-80
2024/03/02 13:24:28;;;;;;;;;;;;;;;20.91;54.27;100067.86;2378521;73;52113;-82
2024/03/02 13:27:28;;;;;;;;;;;;;;;20.93;54.48;100071.17;2407446;73;22327;-82
2024/03/02 13:30:30;;;;;;;;;;;;;;;20.94;54.34;100072.31;2362407;73;50000;-82
2024/03/02 13:33:32;;;;;;;;;;;;;;;20.94;54.24;100060.21;2401724;73;51444;-82
2024/03/02 13:36:34;;;;;;;;;;;;;;;20.96;54.17;100057.29;2390731;73;49244;-82
2024/03/02 13:39:44;;;;;;;;;;;;;;;20.96;54.07;100055.45;2398157;73;50300;-81
2024/03/02 13:42:39;;;;;;;;;;;;;;;20.96;54.03;100057.29;2365008;73;22394;-81
2024/03/02 13:45:41;;;;;;;;;;;;;;;20.96;53.99;100054.11;2410798;73;50711;-82
2024/03/02 13:48:43;;;;;;;;;;;;;;;20.97;54.02;100062.47;2342498;73;52229;-83
2024/03/02 13:51:45;;;;;;;;;;;;;;;20.98;54.01;100060.59;2372346;73;50376;-83
2024/03/02 13:54:47;;;;;;;;;;;;;;;20.99;53.99;100060.89;2401395;73;51454;-83
2024/03/02 13:57:53;;;;;;;;;;;;;;;21.01;53.84;100058.30;2364299;73;50366;-84
2024/03/02 14:00:52;;;;;;;;;;;;;;;20.99;53.93;100052.83;2397607;73;22394;-80
2024/03/02 14:03:57;;;;;;;;;;;;;;;20.98;53.90;100053.34;2395276;73;50588;-82
2024/03/02 14:07:00;;;;;;;;;;;;;;;20.98;53.87;100056.04;2400591;73;22390;-83
2024/03/02 14:10:02;;;;;;;;;;;;;;;20.97;53.78;100057.09;2408455;73;51441;-81
2024/03/02 14:13:03;;;;;;;;;;;;;;;20.98;53.75;100058.73;2399692;73;50909;-81
2024/03/02 14:16:05;;;;;;;;;;;;;;;20.97;53.71;100061.13;2361833;73;50649;-83
2024/03/02 14:19:06;;;;;;;;;;;;;;;20.98;53.72;100058.73;2405033;73;50656;-84
2024/03/02 14:22:08;;;;;;;;;;;;;;;21.03;55.54;100065.64;2405971;73;51078;-83
2024/03/02 14:25:10;;;;;;;;;;;;;;;21.10;55.13;100065.09;2401419;72;52195;-81
2024/03/02 14:28:12;;;;;;;;;;;;;;;21.10;54.94;100062.41;2407114;73;50562;-82
2024/03/02 14:31:14;;;;;;;;;;;;;;;21.10;54.85;100058.89;2403562;73;51803;-82
2024/03/02 14:34:16;;;;;;;;;;;;;;;21.10;54.70;100064.28;2406916;73;50744;-81
2024/03/02 14:37:17;;;;;;;;;;;;;;;21.08;54.73;100061.78;2336832;73;52224;-82
2024/03/02 14:40:21;;;;;;;;;;;;;;;21.09;54.67;100059.42;2410200;73;50716;-83
2024/03/02 14:43:22;;;;;;;;;;;;;;;21.10;54.65;100059.72;2401766;73;50660;-84
2024/03/02 14:46:24;;;;;;;;;;;;;;;21.09;54.71;100057.23;2404364;73;50208;-82
2024/03/02 14:49:26;;;;;;;;;;;;;;;21.07;54.72;100057.46;2348826;74;49779;-83
2024/03/02 14:52:27;;;;;;;;;;;;;;;21.06;54.66;100063.86;2406080;73;50216;-84
2024/03/02 14:55:30;;;;;;;;;;;;;;;21.03;54.68;100058.91;2386605;73;50730;-81
2024/03/02 14:58:31;;;;;;;;;;;;;;;21.00;54.28;100061.22;2386323;74;51497;-84
2024/03/02 15:01:33;;;;;;;;;;;;;;;20.94;53.55;100064.25;2381108;72;51069;-79
2024/03/02 15:04:34;;;;;;;;;;;;;;;20.71;45.62;100059.88;2406890;73;51314;-80
2024/03/02 15:07:36;;;;;;;;;;;;;;;20.53;44.50;100054.61;2390869;73;50760;-80
2024/03/02 15:10:38;;;;;;;;;;;;;;;20.40;44.19;100053.30;2419484;73;50299;-80
2024/03/02 15:13:39;;;;;;;;;;;;;;;20.35;47.88;100048.55;2397134;74;49195;-84
2024/03/02 15:16:42;;;;;;;;;;;;;;;20.38;48.36;100044.09;2395467;73;50547;-82
2024/03/02 15:19:43;;;;;;;;;;;;;;;20.44;48.20;100043.77;2392175;73;50471;-84
2024/03/02 15:22:45;;;;;;;;;;;;;;;20.48;48.65;100039.64;2390303;74;50662;-82
2024/03/02 15:25:47;;;;;;;;;;;;;;;20.53;49.37;100039.84;2398339;74;51653;-82
2024/03/02 15:28:48;;;;;;;;;;;;;;;20.56;49.48;100035.41;2391741;73;50430;-81
2024/03/02 15:31:51;;;;;;;;;;;;;;;20.58;49.77;100044.09;2391704;74;50201;-83
2024/03/02 15:34:53;;;;;;;;;;;;;;;20.61;49.98;100038.81;2391714;74;50843;-83
2024/03/02 15:37:55;;;;;;;;;;;;;;;20.63;50.02;100034.05;2398572;74;50071;-83
2024/03/02 15:40:56;;;;;;;;;;;;;;;20.63;50.16;100032.19;2390629;74;51723;-83
2024/03/02 15:43:58;;;;;;;;;;;;;;;20.67;50.35;100040.64;2399950;73;51545;-82
2024/03/02 15:46:59;;;;;;;;;;;;;;;20.65;50.44;100033.30;2389603;74;50635;-81
2024/03/02 15:50:01;;;;;;;;;;;;;;;20.65;50.74;100035.50;2354959;74;50895;-82
2024/03/02 15:53:06;;;;;;;;;;;;;;;20.65;50.99;100036.84;2389397;74;51101;-81
2024/03/02 15:56:07;;;;;;;;;;;;;;;20.66;51.11;100039.83;2356050;74;22425;-80
2024/03/02 15:59:08;;;;;;;;;;;;;;;20.67;51.31;100043.33;2403796;73;50376;-81
2024/03/02 16:02:10;;;;;;;;;;;;;;;20.69;51.30;100046.64;2427446;73;49501;-80
2024/03/02 16:05:12;;;;;;;;;;;;;;;20.69;51.16;100047.16;2410080;73;50699;-82
2024/03/02 16:08:14;;;;;;;;;;;;;;;20.69;51.16;100044.48;2383167;73;50620;-80
2024/03/02 16:11:16;;;;;;;;;;;;;;;20.69;51.23;100049.85;2410163;73;51593;-81
2024/03/02 16:14:17;;;;;;;;;;;;;;;20.71;51.27;100049.12;2363548;73;50763;-82
2024/03/02 16:17:19;;;;;;;;;;;;;;;20.71;51.29;100058.54;2365318;74;50022;-81
2024/03/02 16:20:20;;;;;;;;;;;;;;;20.71;51.31;100052.64;2364982;74;50358;-82
2024/03/02 16:23:22;;;;;;;;;;;;;;;20.70;51.38;100052.84;2365016;74;49968;-81
2024/03/02 16:26:24;;;;;;;;;;;;;;;20.71;51.35;100050.47;2342288;74;49851;-83
2024/03/02 16:29:25;;;;;;;;;;;;;;;20.70;51.28;100060.90;2382389;74;51418;-80
2024/03/02 16:32:27;;;;;;;;;;;;;;;20.71;51.55;100059.36;2397754;74;50717;-80
2024/03/02 16:35:28;;;;;;;;;;;;;;;20.71;51.63;100055.84;2381149;74;51463;-80
2024/03/02 16:38:31;;;;;;;;;;;;;;;20.74;51.71;100059.45;2344894;74;50920;-81
2024/03/02 16:41:33;;;;;;;;;;;;;;;20.73;51.85;100064.50;2394086;74;51533;-79
2024/03/02 16:44:34;;;;;;;;;;;;;;;20.73;52.03;100063.16;2390534;74;51591;-80
2024/03/02 16:47:38;;;;;;;;;;;;;;;20.76;52.05;100065.45;2383450;74;50701;-79
2024/03/02 16:50:42;;;;;;;;;;;;;;;20.78;52.15;100059.32;2366954;74;52417;-80
2024/03/02 16:53:44;;;;;;;;;;;;;;;20.76;52.19;100066.27;2399139;73;51509;-80
2024/03/02 16:56:46;;;;;;;;;;;;;;;20.78;52.17;100062.01;2363134;74;50600;-79
2024/03/02 16:59:47;;;;;;;;;;;;;;;20.77;52.18;100061.72;2400151;74;49941;-81
2024/03/02 17:02:49;;;;;;;;;;;;;;;20.75;52.27;100067.81;2334657;74;49280;-79
2024/03/02 17:05:50;;;;;;;;;;;;;;;20.76;52.14;100060.89;2357913;75;50665;-80
2024/03/02 17:08:52;;;;;;;;;;;;;;;20.76;52.34;100067.62;2358551;75;51530;-78
2024/03/02 17:11:53;;;;;;;;;;;;;;;20.81;53.05;100068.33;2358793;75;51420;-78
2024/03/02 17:14:55;;;;;;;;;;;;;;;20.79;53.19;100077.13;2322232;75;51600;-80
2024/03/02 17:17:57;;;;;;;;;;;;;;;20.78;53.55;100084.37;2403044;73;50371;-78
2024/03/02 17:20:58;;;;;;;;;;;;;;;20.80;53.78;100085.48;2432332;73;50707;-78
2024/03/02 17:24:02;;;;;;;;;;;;;;;20.81;53.79;100088.50;2432216;73;50573;-81
2024/03/02 17:27:03;;;;;;;;;;;;;;;20.82;53.99;100090.14;2433861;73;22490;-84
2024/03/02 17:30:05;;;;;;;;;;;;;;;20.84;54.44;100095.61;2398285;73;51396;-81
2024/03/02 17:33:07;;;;;;;;;;;;;;;20.85;54.47;100092.40;2394818;73;50420;-82
2024/03/02 17:36:08;;;;;;;;;;;;;;;20.86;54.31;100095.41;2390651;74;50247;-82
2024/03/02 17:39:10;;;;;;;;;;;;;;;20.86;54.20;100090.03;2371210;73;49399;-82
2024/03/02 17:42:12;;;;;;;;;;;;;;;20.83;54.36;100087.74;2433117;73;50700;-81
2024/03/02 17:45:13;;;;;;;;;;;;;;;20.82;54.45;100090.14;2415603;73;51513;-80
2024/03/02 17:48:16;;;;;;;;;;;;;;;20.85;54.01;100093.74;2390140;74;50434;-80
2024/03/02 17:51:18;;;;;;;;;;;;;;;20.81;53.97;100097.91;2399183;73;50155;-82
2024/03/02 17:54:20;;;;;;;;;;;;;;;20.84;53.82;100105.55;2390419;73;51797;-81
2024/03/02 17:57:22;;;;;;;;;;;;;;;20.83;53.74;100108.77;2392902;73;50598;-79
2024/03/02 18:00:24;;;;;;;;;;;;;;;20.80;53.77;100103.78;2404743;73;51555;-80
2024/03/02 18:03:25;;;;;;;;;;;;;;;20.79;53.77;100104.83;2368639;74;50986;-80
2024/03/02 18:06:27;;;;;;;;;;;;;;;20.80;53.73;100113.72;2399398;73;51237;-81
2024/03/02 18:09:29;;;;;;;;;;;;;;;20.79;53.72;100114.77;2359029;74;50666;-81
2024/03/02 18:12:31;;;;;;;;;;;;;;;20.77;53.69;100110.11;2386825;74;51445;-81
2024/03/02 18:15:32;;;;;;;;;;;;;;;20.76;53.63;100117.36;2360727;73;51430;-79
2024/03/02 18:18:34;;;;;;;;;;;;;;;20.76;53.60;100120.05;2428030;73;51582;-80
2024/03/02 18:21:36;;;;;;;;;;;;;;;20.75;53.59;100117.03;2427972;73;51397;-81
2024/03/02 18:24:37;;;;;;;;;;;;;;;20.75;53.54;100119.72;2412633;73;51269;-80
2024/03/02 18:27:39;;;;;;;;;;;;;;;20.75;53.50;100114.34;2423945;73;51667;-81
2024/03/02 18:30:41;;;;;;;;;;;;;;;20.75;53.47;100111.66;2394672;73;51415;-80
2024/03/02 18:33:42;;;;;;;;;;;;;;;20.74;53.42;100117.26;2358915;73;50227;-80
2024/03/02 18:36:44;;;;;;;;;;;;;;;20.74;53.40;100106.50;2387867;73;50062;-79
2024/03/02 18:39:45;;;;;;;;;;;;;;;20.73;53.23;100110.21;2366339;74;51229;-79
2024/03/02 18:42:47;;;;;;;;;;;;;;;20.73;53.32;100107.52;2385523;74;50386;-78
2024/03/02 18:45:49;;;;;;;;;;;;;;;20.74;53.81;100116.73;2403140;73;50629;-79
2024/03/02 18:48:50;;;;;;;;;;;;;;;20.77;53.81;100115.48;2397295;73;50412;-79
2024/03/02 18:51:52;;;;;;;;;;;;;;;20.81;53.71;100103.29;2408244;73;50054;-79
2024/03/02 18:54:53;;;;;;;;;;;;;;;20.78;53.69;100098.30;2421828;73;50443;-80
2024/03/02 18:57:56;;;;;;;;;;;;;;;20.79;53.62;100099.98;2408760;72;50328;-80
2024/03/02 19:00:58;;;;;;;;;;;;;;;20.78;53.73;100098.30;2406123;73;51435;-79
2024/03/02 19:04:00;;;;;;;;;;;;;;;20.77;53.76;100108.77;2357666;74;52280;-78
2024/03/02 19:07:01;;;;;;;;;;;;;;;20.79;53.43;100086.53;2394606;73;50343;-79
2024/03/02 19:10:04;;;;;;;;;;;;;;;20.76;53.55;100097.72;2381966;73;50397;-79
2024/03/02 19:13:06;;;;;;;;;;;;;;;20.75;53.47;100097.39;2374090;74;50773;-80
2024/03/02 19:16:13;;;;;;;;;;;;;;;20.75;53.57;100102.77;2347373;73;52497;-80
2024/03/02 19:19:15;;;;;;;;;;;;;;;20.75;53.59;100098.73;2348328;73;50726;-80
2024/03/02 19:22:17;;;;;;;;;;;;;;;20.74;53.59;100102.47;2385204;73;50674;-78
2024/03/02 19:25:20;;;;;;;;;;;;;;;20.76;53.69;100097.72;2389830;73;50556;-78
2024/03/02 19:28:21;;;;;;;;;;;;;;;20.75;53.83;100100.08;2412514;73;51444;-78
2024/03/02 19:31:23;;;;;;;;;;;;;;;20.75;53.93;100097.39;2399607;72;51491;-78
2024/03/02 19:34:25;;;;;;;;;;;;;;;20.78;53.88;100094.27;2384987;74;51484;-78
2024/03/02 19:37:26;;;;;;;;;;;;;;;20.76;53.88;100093.16;2411351;73;50259;-78
2024/03/02 19:40:28;;;;;;;;;;;;;;;20.84;53.87;100086.72;2384248;73;49602;-78
2024/03/02 19:43:30;;;;;;;;;;;;;;;20.82;54.21;100078.86;2420921;72;51645;-77
2024/03/02 19:46:32;;;;;;;;;;;;;;;20.84;55.27;100082.69;2409884;73;51445;-78
2024/03/02 19:49:34;;;;;;;;;;;;;;;20.88;56.10;100082.55;2385051;74;51483;-78
2024/03/02 19:52:35;;;;;;;;;;;;;;;20.92;56.38;100075.73;2380006;73;50998;-78
2024/03/02 19:55:37;;;;;;;;;;;;;;;20.99;58.95;100078.38;2479404;71;52447;-79
2024/03/02 19:58:39;;;;;;;;;;;;;;;21.04;56.49;100078.06;2485688;71;50319;-79
2024/03/02 20:01:40;;;;;;;;;;;;;;;21.05;55.97;100074.33;2485745;71;50715;-78
2024/03/02 20:04:43;;;;;;;;;;;;;;;21.06;55.60;100073.27;2446644;71;52450;-78
2024/03/02 20:07:45;;;;;;;;;;;;;;;21.05;55.36;100068.13;2456112;71;50324;-78
2024/03/02 20:10:46;;;;;;;;;;;;;;;21.03;55.10;100065.64;2427647;73;50357;-78
2024/03/02 20:13:48;;;;;;;;;;;;;;;21.03;54.99;100064.30;2399567;73;50352;-79
2024/03/02 20:16:49;;;;;;;;;;;;;;;21.02;54.85;100062.66;2348855;74;51208;-78
2024/03/02 20:19:51;;;;;;;;;;;;;;;21.01;54.81;100067.71;2397903;74;50325;-79
2024/03/02 20:22:53;;;;;;;;;;;;;;;21.00;54.69;100067.94;2398403;73;50673;-79
2024/03/02 20:25:57;;;;;;;;;;;;;;;20.99;54.63;100057.70;2397779;74;51684;-78
2024/03/02 20:28:57;;;;;;;;;;;;;;;20.99;54.60;100067.62;2398333;74;22416;-79
2024/03/02 20:31:59;;;;;;;;;;;;;;;20.97;54.57;100062.99;2398002;74;52525;-78
2024/03/02 20:35:01;;;;;;;;;;;;;;;20.96;54.51;100065.36;2364176;73;51505;-77
2024/03/02 20:38:02;;;;;;;;;;;;;;;20.96;54.51;100068.05;2361937;74;49970;-78
2024/03/02 20:41:04;;;;;;;;;;;;;;;20.94;54.53;100057.52;2372692;73;51606;-78
2024/03/02 20:44:06;;;;;;;;;;;;;;;20.94;54.49;100059.39;2390989;74;51542;-79
2024/03/02 20:47:07;;;;;;;;;;;;;;;20.93;54.43;100055.03;2397814;74;50720;-80
2024/03/02 20:50:09;;;;;;;;;;;;;;;20.92;54.39;100059.59;2397651;74;51547;-79
2024/03/02 20:53:11;;;;;;;;;;;;;;;20.92;54.40;100048.02;2334590;74;50973;-79
2024/03/02 20:56:12;;;;;;;;;;;;;;;20.92;54.36;100052.05;2397018;74;51432;-79
2024/03/02 20:59:14;;;;;;;;;;;;;;;20.91;54.34;100050.37;2397244;74;52505;-79
2024/03/02 21:02:16;;;;;;;;;;;;;;;20.90;54.42;100050.91;2397170;73;50692;-78
2024/03/02 21:05:18;;;;;;;;;;;;;;;20.88;54.38;100051.63;2384399;73;49627;-79
2024/03/02 21:08:20;;;;;;;;;;;;;;;20.89;54.65;100064.05;2363613;74;50583;-80
2024/03/02 21:11:22;;;;;;;;;;;;;;;20.91;54.34;100053.06;2420849;73;50584;-78
2024/03/02 21:14:23;;;;;;;;;;;;;;;20.88;54.30;100054.32;2403518;73;51270;-78
2024/03/02 21:17:26;;;;;;;;;;;;;;;20.87;54.24;100055.37;2397731;73;50048;-77
2024/03/02 21:20:28;;;;;;;;;;;;;;;20.85;54.21;100054.75;2328683;74;51613;-78
2024/03/02 21:23:29;;;;;;;;;;;;;;;20.82;54.18;100052.49;2354625;74;49670;-77
2024/03/02 21:26:31;;;;;;;;;;;;;;;20.82;54.15;100051.97;2366325;74;49919;-79
2024/03/02 21:29:32;;;;;;;;;;;;;;;20.81;54.13;100053.02;2336666;74;51400;-78
2024/03/02 21:32:34;;;;;;;;;;;;;;;20.80;54.14;100050.00;2345867;76;50651;-79
2024/03/02 21:35:36;;;;;;;;;;;;;;;20.80;54.13;100049.19;2327202;76;51418;-79
2024/03/02 21:38:38;;;;;;;;;;;;;;;20.79;54.15;100042.98;2319329;76;50683;-79
2024/03/02 21:41:39;;;;;;;;;;;;;;;20.79;54.07;100046.20;2336885;76;51503;-79
2024/03/02 21:44:41;;;;;;;;;;;;;;;20.79;54.46;100040.30;2304196;76;50789;-79
2024/03/02 21:47:42;;;;;;;;;;;;;;;20.79;54.78;100039.48;2314955;75;50329;-79
2024/03/02 21:50:44;;;;;;;;;;;;;;;20.78;54.62;100040.00;2342063;76;50664;-79
2024/03/02 21:53:46;;;;;;;;;;;;;;;20.79;54.53;100040.83;2336296;76;50687;-81
2024/03/02 21:56:47;;;;;;;;;;;;;;;20.79;54.53;100042.17;2321940;76;50986;-78
2024/03/02 21:59:49;;;;;;;;;;;;;;;20.78;54.56;100037.81;2333099;76;51442;-78
2024/03/02 22:02:50;;;;;;;;;;;;;;;20.78;54.62;100035.12;2320972;76;51697;-79
2024/03/02 22:05:52;;;;;;;;;;;;;;;20.77;54.54;100032.95;2297241;76;51404;-78
2024/03/02 22:08:54;;;;;;;;;;;;;;;20.78;54.55;100032.44;2287219;76;50122;-78
2024/03/02 22:11:55;;;;;;;;;;;;;;;20.77;54.53;100026.77;2326222;75;50617;-79
2024/03/02 22:14:57;;;;;;;;;;;;;;;20.77;54.52;100029.45;2342959;76;50321;-79
2024/03/02 22:18:02;;;;;;;;;;;;;;;20.77;54.49;100024.07;2332176;74;50301;-78
2024/03/02 22:21:02;;;;;;;;;;;;;;;20.78;54.45;100027.05;2360702;74;22226;-78
2024/03/02 22:24:04;;;;;;;;;;;;;;;20.76;54.43;100017.88;2334690;74;50355;-79
2024/03/02 22:27:05;;;;;;;;;;;;;;;20.76;54.40;100023.25;2327703;76;50338;-78
2024/03/02 22:30:07;;;;;;;;;;;;;;;20.77;54.37;100022.73;2347769;76;50255;-78
2024/03/02 22:33:09;;;;;;;;;;;;;;;20.76;54.32;100014.37;2289827;76;51250;-79
2024/03/02 22:36:11;;;;;;;;;;;;;;;20.76;54.31;100017.88;2348976;76;50750;-79
2024/03/02 22:39:13;;;;;;;;;;;;;;;20.75;54.29;100012.70;2333753;75;51806;-79
2024/03/02 22:42:15;;;;;;;;;;;;;;;20.76;54.27;100013.02;2330734;76;49959;-79
2024/03/02 22:45:16;;;;;;;;;;;;;;;20.75;54.23;100013.52;2347109;74;52075;-78
2024/03/02 22:48:18;;;;;;;;;;;;;;;20.76;54.19;100012.50;2366563;74;51385;-77
2024/03/02 22:51:22;;;;;;;;;;;;;;;20.76;54.19;100010.34;2346652;76;50603;-77
2024/03/02 22:54:23;;;;;;;;;;;;;;;20.76;54.18;100006.30;2345572;76;50414;-78
2024/03/02 22:57:25;;;;;;;;;;;;;;;20.74;54.19;100005.16;2313969;76;51960;-77
2024/03/02 23:00:47;;;;;;;;;;;;;;;20.74;54.22;100003.81;2346619;76;50262;-76
2024/03/02 23:03:39;;;;;;;;;;;;;;;20.74;54.24;100003.00;2344528;76;22397;-77
2024/03/02 23:06:41;;;;;;;;;;;;;;;20.74;54.25;100000.30;2314215;76;50199;-76
2024/03/02 23:09:42;;;;;;;;;;;;;;;20.75;54.21;100003.29;2313901;76;51294;-77
2024/03/02 23:12:44;;;;;;;;;;;;;;;20.72;54.23;100001.85;2346734;76;50690;-77
2024/03/02 23:15:46;;;;;;;;;;;;;;;20.74;54.20;99996.27;2354066;74;51478;-78
2024/03/02 23:18:48;;;;;;;;;;;;;;;20.73;54.18;99995.95;2337577;75;51540;-79
2024/03/02 23:21:50;;;;;;;;;;;;;;;20.73;54.15;99993.26;2324319;76;49559;-80
2024/03/02 23:24:51;;;;;;;;;;;;;;;20.73;54.14;99991.42;2358193;74;50390;-80
2024/03/02 23:27:53;;;;;;;;;;;;;;;20.74;54.12;99990.89;2380368;74;50384;-79
2024/03/02 23:30:54;;;;;;;;;;;;;;;20.73;54.09;99987.88;2342742;74;51478;-80
2024/03/02 23:33:59;;;;;;;;;;;;;;;20.73;54.07;99983.36;2332525;75;52465;-79
2024/03/02 23:37:00;;;;;;;;;;;;;;;20.73;54.02;99982.02;2305861;76;22398;-79
2024/03/02 23:43:08;;;;;;;;;;;;;;;20.72;54.00;99983.03;2363761;74;22444;-79
2024/03/02 23:46:10;;;;;;;;;;;;;;;20.72;53.98;99977.66;2344000;74;51019;-78
2024/03/02 23:49:12;;;;;;;;;;;;;;;20.72;53.94;99978.18;2344797;74;50630;-78
2024/03/02 23:52:14;;;;;;;;;;;;;;;20.71;53.93;99987.30;2379944;74;50701;-78